createdAt,value
2022-11-05T00:00:26.663Z,18.30
2022-11-05T00:01:26.406Z,17.60
2022-11-05T00:02:26.324Z,16.50
2022-11-05T00:03:47.273Z,18.30
2022-11-05T00:04:30.766Z,18.60
2022-11-05T00:05:26.326Z,18.40
2022-11-05T00:06:26.063Z,19.70
2022-11-05T00:07:25.987Z,19.60
2022-11-05T00:08:25.918Z,19.00
2022-11-05T00:09:25.875Z,18.40
2022-11-05T00:10:25.917Z,18.20
2022-11-05T00:11:25.886Z,19.20
2022-11-05T00:12:25.694Z,18.90
2022-11-05T00:13:25.639Z,19.60
2022-11-05T00:14:25.563Z,20.10
2022-11-05T00:15:25.765Z,19.80
2022-11-05T00:16:46.398Z,19.90
2022-11-05T00:17:25.372Z,20.30
2022-11-05T00:18:25.287Z,19.10
2022-11-05T00:19:25.249Z,19.70
2022-11-05T00:20:25.181Z,19.90
2022-11-05T00:21:25.132Z,19.80
2022-11-05T00:22:25.043Z,19.30
2022-11-05T00:23:24.964Z,20.50
2022-11-05T00:24:25.070Z,20.30
2022-11-05T00:25:24.833Z,20.60
2022-11-05T00:26:24.993Z,19.80
2022-11-05T00:27:25.057Z,20.10
2022-11-05T00:28:24.659Z,20.50
2022-11-05T00:29:24.581Z,19.50
2022-11-05T00:30:24.524Z,20.60
2022-11-05T00:31:24.579Z,20.60
2022-11-05T00:32:24.407Z,21.80
2022-11-05T00:33:24.358Z,19.50
2022-11-05T00:34:24.499Z,21.10
2022-11-05T00:35:24.204Z,20.20
2022-11-05T00:36:24.148Z,20.50
2022-11-05T00:37:24.092Z,20.00
2022-11-05T00:38:24.015Z,20.50
2022-11-05T00:41:03.069Z,19.20
2022-11-05T00:42:05.015Z,20.30
2022-11-05T00:43:03.949Z,18.90
2022-11-05T00:44:03.892Z,18.90
2022-11-05T00:45:03.848Z,19.20
2022-11-05T00:46:03.742Z,20.00
2022-11-05T00:47:03.674Z,19.40
2022-11-05T00:48:03.831Z,18.60
2022-11-05T00:49:03.554Z,19.60
2022-11-05T00:50:03.610Z,18.60
2022-11-05T00:51:03.452Z,18.60
2022-11-05T00:52:03.383Z,18.70
2022-11-05T00:53:03.317Z,18.40
2022-11-05T00:54:03.239Z,18.00
2022-11-05T00:55:03.203Z,17.70
2022-11-05T00:56:03.107Z,17.50
2022-11-05T00:57:24.032Z,17.30
2022-11-05T00:58:02.999Z,20.60
2022-11-05T00:59:02.909Z,19.50
2022-11-05T01:00:02.879Z,20.40
2022-11-05T01:01:02.799Z,20.50
2022-11-05T01:02:02.874Z,17.40
2022-11-05T01:03:02.680Z,18.10
2022-11-05T01:04:02.720Z,17.40
2022-11-05T01:05:02.545Z,17.60
2022-11-05T01:06:02.474Z,16.60
2022-11-05T01:07:02.408Z,16.70
2022-11-05T01:08:02.352Z,16.60
2022-11-05T01:09:02.317Z,16.60
2022-11-05T01:10:02.237Z,16.40
2022-11-05T01:11:02.182Z,16.40
2022-11-05T01:12:02.105Z,15.60
2022-11-05T01:13:02.027Z,16.10
2022-11-05T01:14:02.010Z,16.40
2022-11-05T01:15:01.948Z,15.20
2022-11-05T01:16:01.840Z,16.00
2022-11-05T01:17:01.988Z,16.30
2022-11-05T01:18:01.938Z,15.00
2022-11-05T01:19:01.662Z,15.20
2022-11-05T01:20:01.587Z,15.30
2022-11-05T01:21:22.719Z,13.90
2022-11-05T01:22:01.453Z,14.70
2022-11-05T01:23:01.387Z,15.90
2022-11-05T01:24:01.302Z,15.10
2022-11-05T01:25:01.285Z,14.40
2022-11-05T01:26:01.325Z,14.50
2022-11-05T01:27:01.169Z,13.90
2022-11-05T01:28:01.057Z,13.60
2022-11-05T01:29:01.086Z,13.60
2022-11-05T01:30:00.935Z,12.60
2022-11-05T01:31:00.916Z,12.90
2022-11-05T01:32:01.555Z,12.70
2022-11-05T01:33:00.788Z,13.10
2022-11-05T01:34:00.708Z,12.60
2022-11-05T01:35:00.624Z,13.70
2022-11-05T01:36:00.570Z,13.60
2022-11-05T01:37:00.518Z,13.50
2022-11-05T01:38:00.423Z,14.40
2022-11-05T01:39:00.649Z,14.40
2022-11-05T01:40:00.319Z,14.30
2022-11-05T01:41:00.472Z,13.70
2022-11-05T01:42:00.186Z,14.60
2022-11-05T01:43:00.123Z,13.70
2022-11-05T01:44:00.080Z,14.80
2022-11-05T01:45:00.023Z,15.10
2022-11-05T01:45:59.916Z,14.40
2022-11-05T01:46:59.858Z,17.30
2022-11-05T01:47:59.795Z,15.30
2022-11-05T01:49:03.147Z,14.80
2022-11-05T01:49:59.674Z,15.40
2022-11-05T01:50:59.649Z,15.10
2022-11-05T01:51:59.558Z,15.00
2022-11-05T01:52:59.500Z,14.80
2022-11-05T01:53:59.412Z,16.20
2022-11-05T01:54:59.363Z,16.10
2022-11-05T01:55:59.354Z,16.10
2022-11-05T01:56:59.324Z,16.00
2022-11-05T01:57:59.115Z,15.70
2022-11-05T01:58:59.092Z,15.10
2022-11-05T01:59:59.182Z,14.90
2022-11-05T02:00:58.931Z,15.90
2022-11-05T02:01:59.049Z,15.80
2022-11-05T02:02:59.024Z,15.60
2022-11-05T02:03:58.801Z,15.70
2022-11-05T02:04:58.739Z,16.00
2022-11-05T02:05:58.668Z,15.90
2022-11-05T02:06:58.590Z,16.20
2022-11-05T02:07:58.520Z,16.90
2022-11-05T02:08:58.487Z,16.30
2022-11-05T02:09:58.417Z,17.10
2022-11-05T02:10:58.348Z,15.90
2022-11-05T02:11:58.378Z,16.50
2022-11-05T02:12:58.215Z,17.00
2022-11-05T02:13:58.159Z,18.00
2022-11-05T02:14:58.115Z,17.50
2022-11-05T02:15:58.015Z,17.60
2022-11-05T02:16:57.968Z,16.90
2022-11-05T02:17:57.896Z,16.60
2022-11-05T02:18:57.825Z,17.20
2022-11-05T02:19:57.762Z,15.90
2022-11-05T02:20:58.634Z,16.00
2022-11-05T02:21:57.658Z,16.90
2022-11-05T02:22:57.687Z,16.70
2022-11-05T02:23:57.620Z,15.90
2022-11-05T02:24:57.458Z,15.90
2022-11-05T02:25:57.390Z,17.20
2022-11-05T02:26:57.700Z,16.70
2022-11-05T02:27:57.250Z,18.00
2022-11-05T02:28:58.005Z,16.50
2022-11-05T02:29:57.131Z,16.40
2022-11-05T02:30:57.076Z,16.20
2022-11-05T02:31:57.027Z,16.60
2022-11-05T02:32:56.969Z,16.20
2022-11-05T02:33:57.091Z,17.60
2022-11-05T02:34:56.815Z,16.90
2022-11-05T02:35:56.752Z,17.50
2022-11-05T02:36:56.713Z,16.60
2022-11-05T02:37:56.594Z,17.30
2022-11-05T02:38:56.560Z,17.20
2022-11-05T02:39:56.507Z,17.20
2022-11-05T02:40:56.420Z,17.80
2022-11-05T02:41:59.281Z,17.60
2022-11-05T02:42:56.330Z,17.30
2022-11-05T02:43:56.243Z,18.10
2022-11-05T02:47:25.202Z,18.90
2022-11-05T02:48:26.143Z,18.20
2022-11-05T02:49:26.099Z,18.70
2022-11-05T02:50:26.012Z,18.50
2022-11-05T02:51:25.959Z,19.20
2022-11-05T02:52:25.879Z,19.40
2022-11-05T02:53:25.838Z,19.80
2022-11-05T02:54:25.779Z,18.90
2022-11-05T02:55:25.771Z,20.30
2022-11-05T02:56:25.622Z,18.60
2022-11-05T02:57:26.341Z,19.40
2022-11-05T02:58:25.516Z,21.10
2022-11-05T02:59:25.446Z,19.60
2022-11-05T03:00:25.376Z,20.00
2022-11-05T03:01:25.712Z,20.40
2022-11-05T03:02:25.454Z,20.90
2022-11-05T03:05:04.166Z,20.50
2022-11-05T03:06:05.090Z,20.20
2022-11-05T03:07:05.181Z,20.50
2022-11-05T03:08:04.987Z,21.40
2022-11-05T03:09:04.946Z,21.30
2022-11-05T03:10:04.960Z,22.40
2022-11-05T03:11:04.787Z,21.10
2022-11-05T03:12:04.751Z,21.80
2022-11-05T03:13:04.652Z,22.60
2022-11-05T03:14:04.577Z,22.50
2022-11-05T03:15:04.543Z,23.00
2022-11-05T03:16:04.469Z,21.70
2022-11-05T03:17:04.404Z,23.70
2022-11-05T03:18:04.327Z,22.70
2022-11-05T03:19:04.262Z,22.80
2022-11-05T03:20:04.228Z,22.80
2022-11-05T03:21:04.182Z,22.90
2022-11-05T03:22:04.074Z,22.90
2022-11-05T03:23:04.024Z,25.00
2022-11-05T03:24:03.973Z,24.80
2022-11-05T03:25:03.883Z,25.20
2022-11-05T03:26:03.822Z,24.00
2022-11-05T03:28:42.717Z,26.50
2022-11-05T03:29:43.623Z,24.70
2022-11-05T03:30:43.592Z,26.10
2022-11-05T03:31:43.522Z,25.90
2022-11-05T03:32:43.456Z,25.60
2022-11-05T03:33:43.335Z,26.50
2022-11-05T03:34:43.318Z,27.90
2022-11-05T03:35:43.274Z,27.50
2022-11-05T03:36:44.215Z,26.30
2022-11-05T03:37:43.140Z,27.50
2022-11-05T03:38:43.080Z,28.10
2022-11-05T03:39:43.015Z,27.60
2022-11-05T03:40:42.921Z,29.80
2022-11-05T03:41:43.660Z,28.70
2022-11-05T03:42:42.827Z,29.40
2022-11-05T03:43:42.733Z,29.90
2022-11-05T03:44:42.695Z,28.20
2022-11-05T03:45:42.648Z,28.80
2022-11-05T03:46:42.554Z,27.50
2022-11-05T03:47:42.500Z,27.00
2022-11-05T03:48:42.481Z,26.40
2022-11-05T03:49:42.383Z,26.50
2022-11-05T03:50:42.296Z,21.80
2022-11-05T03:51:42.218Z,21.90
2022-11-05T03:52:42.186Z,19.00
2022-11-05T03:53:42.089Z,19.70
2022-11-05T03:54:42.045Z,19.80
2022-11-05T03:55:41.997Z,19.50
2022-11-05T03:56:41.918Z,21.30
2022-11-05T03:57:41.848Z,22.70
2022-11-05T03:58:41.787Z,22.40
2022-11-05T03:59:41.846Z,21.80
2022-11-05T04:00:41.658Z,21.90
2022-11-05T04:01:41.776Z,20.80
2022-11-05T04:02:41.891Z,22.00
2022-11-05T04:03:41.749Z,21.10
2022-11-05T04:04:41.389Z,21.30
2022-11-05T04:05:41.395Z,20.50
2022-11-05T04:06:41.487Z,19.80
2022-11-05T04:07:41.225Z,18.60
2022-11-05T04:08:41.168Z,17.80
2022-11-05T04:09:41.117Z,17.90
2022-11-05T04:10:41.035Z,16.30
2022-11-05T04:11:40.960Z,16.40
2022-11-05T04:12:40.904Z,16.80
2022-11-05T04:13:40.851Z,16.40
2022-11-05T04:14:40.793Z,17.50
2022-11-05T04:16:01.694Z,16.70
2022-11-05T04:16:40.873Z,16.20
2022-11-05T04:17:40.566Z,14.60
2022-11-05T04:18:40.523Z,16.90
2022-11-05T04:19:40.440Z,15.70
2022-11-05T04:20:41.135Z,15.90
2022-11-05T04:21:40.353Z,14.70
2022-11-05T04:22:40.482Z,14.50
2022-11-05T04:23:40.211Z,16.20
2022-11-05T04:24:40.141Z,15.10
2022-11-05T04:25:40.080Z,19.50
2022-11-05T04:26:40.026Z,24.30
2022-11-05T04:27:39.943Z,25.30
2022-11-05T04:28:39.893Z,24.00
2022-11-05T04:29:39.805Z,23.40
2022-11-05T04:30:39.732Z,25.40
2022-11-05T04:31:39.669Z,23.90
2022-11-05T04:32:39.631Z,24.40
2022-11-05T04:33:39.578Z,23.40
2022-11-05T04:34:40.165Z,24.50
2022-11-05T04:35:39.439Z,23.50
2022-11-05T04:36:39.364Z,19.00
2022-11-05T04:37:39.307Z,19.50
2022-11-05T04:38:39.223Z,20.30
2022-11-05T04:39:39.188Z,18.90
2022-11-05T04:40:40.111Z,19.30
2022-11-05T04:41:39.058Z,20.00
2022-11-05T04:42:38.993Z,20.00
2022-11-05T04:43:38.900Z,20.50
2022-11-05T04:44:38.853Z,21.30
2022-11-05T04:45:38.828Z,21.10
2022-11-05T04:46:38.737Z,22.20
2022-11-05T04:47:38.666Z,22.10
2022-11-05T04:48:38.619Z,24.80
2022-11-05T04:49:38.531Z,23.80
2022-11-05T04:50:38.463Z,25.30
2022-11-05T04:53:17.376Z,24.30
2022-11-05T04:54:18.316Z,24.50
2022-11-05T04:55:18.230Z,25.50
2022-11-05T04:56:18.188Z,25.10
2022-11-05T04:57:18.119Z,24.40
2022-11-05T04:58:18.042Z,24.40
2022-11-05T04:59:17.979Z,25.30
2022-11-05T05:00:17.919Z,24.20
2022-11-05T05:01:18.035Z,25.60
2022-11-05T05:02:17.905Z,26.90
2022-11-05T05:03:17.757Z,25.00
2022-11-05T05:04:17.659Z,26.50
2022-11-05T05:05:17.605Z,26.20
2022-11-05T05:06:17.542Z,25.70
2022-11-05T05:07:17.482Z,25.80
2022-11-05T05:08:17.399Z,25.50
2022-11-05T05:09:17.369Z,26.60
2022-11-05T05:10:17.305Z,27.80
2022-11-05T05:11:17.242Z,26.10
2022-11-05T05:12:17.152Z,27.10
2022-11-05T05:13:17.114Z,26.60
2022-11-05T05:14:17.042Z,26.20
2022-11-05T05:15:17.001Z,26.30
2022-11-05T05:16:16.896Z,26.90
2022-11-05T05:17:16.827Z,26.80
2022-11-05T05:18:16.801Z,27.20
2022-11-05T05:19:16.696Z,27.10
2022-11-05T05:20:16.652Z,26.50
2022-11-05T05:21:16.613Z,27.80
2022-11-05T05:22:16.537Z,27.00
2022-11-05T05:23:16.608Z,28.10
2022-11-05T05:24:16.366Z,27.80
2022-11-05T05:25:16.332Z,26.70
2022-11-05T05:26:16.279Z,27.60
2022-11-05T05:27:16.205Z,28.20
2022-11-05T05:28:16.156Z,28.60
2022-11-05T05:29:16.076Z,29.90
2022-11-05T05:30:16.020Z,29.30
2022-11-05T05:31:15.951Z,28.80
2022-11-05T05:32:15.875Z,29.10
2022-11-05T05:33:15.824Z,31.20
2022-11-05T05:34:15.748Z,30.50
2022-11-05T05:35:15.688Z,30.20
2022-11-05T05:36:15.624Z,32.50
2022-11-05T05:37:15.554Z,30.90
2022-11-05T05:38:15.731Z,30.00
2022-11-05T05:39:15.470Z,30.90
2022-11-05T05:40:15.364Z,29.60
2022-11-05T05:41:15.320Z,30.60
2022-11-05T05:42:15.389Z,32.00
2022-11-05T05:43:15.293Z,31.20
2022-11-05T05:44:15.127Z,33.30
2022-11-05T05:45:36.028Z,31.90
2022-11-05T05:46:14.987Z,32.90
2022-11-05T05:47:14.911Z,32.90
2022-11-05T05:48:14.845Z,33.80
2022-11-05T05:49:14.782Z,32.70
2022-11-05T05:50:14.744Z,32.40
2022-11-05T05:51:14.612Z,31.70
2022-11-05T05:52:14.614Z,33.40
2022-11-05T05:53:14.480Z,34.40
2022-11-05T05:54:14.413Z,33.70
2022-11-05T05:55:14.373Z,33.40
2022-11-05T05:56:14.292Z,32.10
2022-11-05T05:57:14.252Z,31.80
2022-11-05T05:58:14.182Z,33.80
2022-11-05T05:59:14.115Z,32.20
2022-11-05T06:00:14.809Z,31.30
2022-11-05T06:01:18.665Z,31.70
2022-11-05T06:02:14.036Z,32.10
2022-11-05T06:04:52.715Z,32.50
2022-11-05T06:05:53.654Z,34.70
2022-11-05T06:06:53.722Z,34.70
2022-11-05T06:07:54.200Z,33.90
2022-11-05T06:08:53.476Z,35.00
2022-11-05T06:09:53.384Z,32.60
2022-11-05T06:10:53.400Z,33.30
2022-11-05T06:11:53.237Z,32.30
2022-11-05T06:12:53.193Z,35.10
2022-11-05T06:13:53.134Z,33.20
2022-11-05T06:14:53.095Z,34.50
2022-11-05T06:15:53.019Z,36.60
2022-11-05T06:16:52.951Z,36.40
2022-11-05T06:17:52.876Z,34.30
2022-11-05T06:18:52.819Z,34.40
2022-11-05T06:19:52.744Z,35.90
2022-11-05T06:20:52.723Z,35.50
2022-11-05T06:21:52.613Z,35.00
2022-11-05T06:22:54.193Z,37.90
2022-11-05T06:23:52.503Z,39.50
2022-11-05T06:24:52.420Z,38.30
2022-11-05T06:25:52.583Z,37.00
2022-11-05T06:26:52.314Z,36.90
2022-11-05T06:27:52.246Z,37.50
2022-11-05T06:28:52.192Z,40.70
2022-11-05T06:29:52.100Z,40.10
2022-11-05T06:30:52.071Z,41.80
2022-11-05T06:31:51.989Z,42.80
2022-11-05T06:32:52.699Z,41.20
2022-11-05T06:33:51.841Z,41.30
2022-11-05T06:34:51.794Z,42.60
2022-11-05T06:35:51.733Z,45.10
2022-11-05T06:36:51.634Z,45.80
2022-11-05T06:37:51.606Z,47.00
2022-11-05T06:38:51.573Z,46.60
2022-11-05T06:39:51.489Z,47.80
2022-11-05T06:40:51.427Z,47.80
2022-11-05T06:42:16.571Z,46.00
2022-11-05T06:42:51.276Z,44.90
2022-11-05T06:43:51.210Z,44.70
2022-11-05T06:44:51.205Z,45.10
2022-11-05T06:45:51.082Z,44.80
2022-11-05T06:46:51.014Z,43.20
2022-11-05T06:47:50.952Z,44.20
2022-11-05T06:48:50.892Z,45.10
2022-11-05T06:49:50.832Z,43.80
2022-11-05T06:50:50.900Z,42.90
2022-11-05T06:51:50.702Z,41.30
2022-11-05T06:52:50.653Z,40.00
2022-11-05T06:53:50.566Z,39.60
2022-11-05T06:54:50.525Z,39.10
2022-11-05T06:55:50.439Z,35.20
2022-11-05T06:57:11.375Z,36.30
2022-11-05T06:57:50.305Z,38.50
2022-11-05T06:58:50.262Z,37.00
2022-11-05T06:59:50.186Z,37.10
2022-11-05T07:00:50.216Z,37.70
2022-11-05T07:01:50.120Z,38.90
2022-11-05T07:02:50.026Z,34.70
2022-11-05T07:03:49.922Z,37.20
2022-11-05T07:04:49.869Z,37.40
2022-11-05T07:05:50.807Z,38.20
2022-11-05T07:06:49.742Z,40.50
2022-11-05T07:07:49.794Z,41.20
2022-11-05T07:08:49.624Z,43.10
2022-11-05T07:09:49.773Z,40.30
2022-11-05T07:10:49.476Z,41.30
2022-11-05T07:11:49.416Z,41.60
2022-11-05T07:12:49.358Z,40.80
2022-11-05T07:13:49.293Z,37.40
2022-11-05T07:15:10.220Z,32.80
2022-11-05T07:15:49.174Z,32.10
2022-11-05T07:16:49.093Z,33.30
2022-11-05T07:17:49.021Z,33.20
2022-11-05T07:18:48.992Z,33.40
2022-11-05T07:19:48.921Z,32.70
2022-11-05T07:20:48.842Z,31.70
2022-11-05T07:21:48.776Z,31.40
2022-11-05T07:22:48.727Z,33.70
2022-11-05T07:23:48.759Z,33.00
2022-11-05T07:24:48.585Z,34.00
2022-11-05T07:25:48.539Z,32.50
2022-11-05T07:26:48.471Z,32.70
2022-11-05T07:27:48.391Z,33.00
2022-11-05T07:28:48.348Z,33.50
2022-11-05T07:29:48.272Z,33.50
2022-11-05T07:30:48.217Z,33.90
2022-11-05T07:31:48.150Z,34.70
2022-11-05T07:33:09.570Z,35.40
2022-11-05T07:33:48.025Z,32.90
2022-11-05T07:34:47.955Z,32.50
2022-11-05T07:35:47.882Z,31.30
2022-11-05T07:36:47.812Z,31.90
2022-11-05T07:37:47.757Z,30.80
2022-11-05T07:38:47.724Z,32.40
2022-11-05T07:39:47.617Z,32.20
2022-11-05T07:40:47.562Z,32.10
2022-11-05T07:41:47.505Z,31.80
2022-11-05T07:42:47.428Z,30.90
2022-11-05T07:43:47.371Z,31.10
2022-11-05T07:44:47.307Z,28.10
2022-11-05T07:45:47.249Z,26.20
2022-11-05T07:46:47.169Z,27.50
2022-11-05T07:47:47.098Z,29.50
2022-11-05T07:48:47.038Z,27.60
2022-11-05T07:49:46.978Z,26.30
2022-11-05T07:50:47.217Z,25.60
2022-11-05T07:51:47.096Z,26.40
2022-11-05T07:52:46.775Z,25.50
2022-11-05T07:53:46.738Z,26.80
2022-11-05T07:54:46.655Z,25.30
2022-11-05T07:55:46.610Z,27.30
2022-11-05T07:56:46.557Z,26.40
2022-11-05T07:57:46.480Z,26.60
2022-11-05T07:58:46.424Z,26.60
2022-11-05T07:59:46.934Z,25.00
2022-11-05T08:00:46.627Z,26.90
2022-11-05T08:01:46.563Z,24.90
2022-11-05T08:02:46.454Z,23.60
2022-11-05T08:03:46.270Z,25.70
2022-11-05T08:04:46.053Z,28.40
2022-11-05T08:05:45.980Z,29.10
2022-11-05T08:06:45.901Z,29.40
2022-11-05T08:07:45.851Z,29.30
2022-11-05T08:10:24.654Z,29.30
2022-11-05T08:11:25.555Z,30.20
2022-11-05T08:12:25.515Z,29.30
2022-11-05T08:13:25.448Z,27.70
2022-11-05T08:14:25.488Z,28.60
2022-11-05T08:15:25.347Z,27.20
2022-11-05T08:16:25.237Z,29.60
2022-11-05T08:17:25.193Z,28.50
2022-11-05T08:18:25.119Z,29.30
2022-11-05T08:19:25.047Z,28.40
2022-11-05T08:20:25.074Z,27.00
2022-11-05T08:21:24.936Z,27.60
2022-11-05T08:22:24.875Z,28.40
2022-11-05T08:23:24.818Z,29.10
2022-11-05T08:24:24.729Z,29.30
2022-11-05T08:25:24.682Z,30.00
2022-11-05T08:26:24.595Z,28.20
2022-11-05T08:27:24.571Z,28.60
2022-11-05T08:28:24.509Z,29.20
2022-11-05T08:29:24.420Z,28.60
2022-11-05T08:30:24.397Z,28.40
2022-11-05T08:31:24.328Z,27.60
2022-11-05T08:32:24.231Z,26.20
2022-11-05T08:33:24.181Z,27.40
2022-11-05T08:34:24.097Z,25.60
2022-11-05T08:35:24.054Z,25.50
2022-11-05T08:36:23.965Z,25.90
2022-11-05T08:37:23.929Z,25.10
2022-11-05T08:38:23.847Z,26.00
2022-11-05T08:39:23.949Z,24.70
2022-11-05T08:40:23.716Z,25.10
2022-11-05T08:41:23.702Z,24.80
2022-11-05T08:42:23.601Z,23.80
2022-11-05T08:43:23.551Z,24.50
2022-11-05T08:44:23.464Z,24.80
2022-11-05T08:45:44.400Z,24.10
2022-11-05T08:46:23.480Z,25.10
2022-11-05T08:47:23.290Z,25.50
2022-11-05T08:48:23.219Z,24.40
2022-11-05T08:49:23.133Z,24.30
2022-11-05T08:50:23.100Z,24.00
2022-11-05T08:51:23.054Z,24.80
2022-11-05T08:52:23.072Z,24.50
2022-11-05T08:53:25.119Z,24.00
2022-11-05T08:54:26.758Z,24.80
2022-11-05T08:55:23.812Z,23.70
2022-11-05T08:56:24.352Z,25.10
2022-11-05T08:57:22.669Z,23.90
2022-11-05T08:58:22.570Z,24.80
2022-11-05T08:59:22.511Z,24.70
2022-11-05T09:00:22.442Z,25.10
2022-11-05T09:01:22.459Z,24.50
2022-11-05T09:02:22.500Z,22.50
2022-11-05T09:03:22.250Z,22.50
2022-11-05T09:04:22.182Z,22.00
2022-11-05T09:05:22.140Z,21.40
2022-11-05T09:06:22.517Z,20.30
2022-11-05T09:07:21.990Z,20.80
2022-11-05T09:08:21.934Z,19.90
2022-11-05T09:09:21.868Z,18.50
2022-11-05T09:10:21.836Z,17.30
2022-11-05T09:11:21.731Z,18.30
2022-11-05T09:12:21.697Z,18.90
2022-11-05T09:13:22.006Z,18.20
2022-11-05T09:14:21.760Z,17.40
2022-11-05T09:15:21.501Z,17.60
2022-11-05T09:16:21.420Z,17.90
2022-11-05T09:17:21.359Z,17.00
2022-11-05T09:18:21.415Z,17.50
2022-11-05T09:19:21.252Z,17.60
2022-11-05T09:20:21.168Z,17.60
2022-11-05T09:23:29.666Z,16.50
2022-11-05T09:24:30.595Z,16.20
2022-11-05T09:25:30.540Z,16.20
2022-11-05T09:26:30.466Z,15.80
2022-11-05T09:27:30.414Z,17.30
2022-11-05T09:28:30.351Z,16.40
2022-11-05T09:29:30.279Z,16.60
2022-11-05T09:30:30.198Z,18.10
2022-11-05T09:31:30.147Z,17.50
2022-11-05T09:32:30.095Z,17.00
2022-11-05T09:33:30.044Z,16.20
2022-11-05T09:34:29.965Z,16.70
2022-11-05T09:35:30.099Z,16.80
2022-11-05T09:36:29.841Z,18.30
2022-11-05T09:37:29.763Z,18.50
2022-11-05T09:38:29.720Z,17.60
2022-11-05T09:39:50.835Z,17.00
2022-11-05T09:40:29.577Z,16.00
2022-11-05T09:41:29.738Z,17.70
2022-11-05T09:42:29.444Z,16.50
2022-11-05T09:43:31.991Z,16.20
2022-11-05T09:44:29.310Z,16.30
2022-11-05T09:45:29.276Z,16.30
2022-11-05T09:46:29.193Z,16.90
2022-11-05T09:47:29.330Z,16.00
2022-11-05T09:48:29.077Z,15.60
2022-11-05T09:49:29.016Z,15.50
2022-11-05T09:50:28.952Z,15.70
2022-11-05T09:51:34.901Z,14.90
2022-11-05T09:52:28.830Z,15.70
2022-11-05T09:53:28.753Z,16.20
2022-11-05T09:54:28.756Z,15.00
2022-11-05T09:55:28.648Z,12.00
2022-11-05T09:56:29.153Z,11.30
2022-11-05T09:57:28.533Z,11.50
2022-11-05T09:58:29.069Z,10.40
2022-11-05T09:59:28.618Z,10.60
2022-11-05T10:00:28.301Z,11.40
2022-11-05T10:01:28.373Z,11.70
2022-11-05T10:02:28.261Z,12.00
2022-11-05T10:03:28.137Z,10.90
2022-11-05T10:04:28.042Z,12.00
2022-11-05T10:05:28.059Z,10.90
2022-11-05T10:06:29.159Z,10.90
2022-11-05T10:07:27.867Z,12.60
2022-11-05T10:08:27.807Z,12.50
2022-11-05T10:09:27.743Z,10.60
2022-11-05T10:10:27.680Z,12.60
2022-11-05T10:11:27.601Z,11.00
2022-11-05T10:12:27.554Z,10.60
2022-11-05T10:13:27.506Z,10.60
2022-11-05T10:14:27.431Z,9.40
2022-11-05T10:15:48.468Z,10.20
2022-11-05T10:16:27.295Z,10.60
2022-11-05T10:17:27.226Z,10.10
2022-11-05T10:18:27.178Z,8.90
2022-11-05T10:19:27.103Z,9.10
2022-11-05T10:20:27.047Z,8.60
2022-11-05T10:21:51.517Z,8.00
2022-11-05T10:22:26.892Z,7.40
2022-11-05T10:23:26.838Z,6.90
2022-11-05T10:24:26.798Z,7.20
2022-11-05T10:25:26.726Z,7.80
2022-11-05T10:26:26.681Z,7.90
2022-11-05T10:27:27.163Z,7.60
2022-11-05T10:28:26.529Z,7.50
2022-11-05T10:29:26.459Z,7.20
2022-11-05T10:30:26.400Z,7.20
2022-11-05T10:31:29.313Z,7.30
2022-11-05T10:32:26.282Z,6.90
2022-11-05T10:33:26.249Z,5.90
2022-11-05T10:34:26.164Z,5.70
2022-11-05T10:35:26.105Z,4.70
2022-11-05T10:36:26.019Z,4.20
2022-11-05T10:37:26.081Z,4.70
2022-11-05T10:38:25.905Z,4.80
2022-11-05T10:39:25.914Z,5.10
2022-11-05T10:40:25.817Z,4.80
2022-11-05T10:41:25.726Z,4.40
2022-11-05T10:42:25.675Z,4.30
2022-11-05T10:43:25.808Z,4.40
2022-11-05T10:44:25.536Z,5.00
2022-11-05T10:45:25.473Z,5.10
2022-11-05T10:46:25.408Z,4.90
2022-11-05T10:47:25.329Z,4.80
2022-11-05T10:48:25.275Z,3.50
2022-11-05T10:49:26.653Z,3.40
2022-11-05T10:50:25.144Z,4.00
2022-11-05T10:51:25.105Z,3.20
2022-11-05T10:52:25.024Z,3.20
2022-11-05T10:53:24.965Z,2.40
2022-11-05T10:54:24.905Z,2.40
2022-11-05T10:55:24.835Z,2.40
2022-11-05T10:56:24.784Z,2.50
2022-11-05T10:57:45.695Z,2.70
2022-11-05T10:58:24.630Z,2.40
2022-11-05T10:59:24.561Z,2.40
2022-11-05T11:00:24.533Z,2.80
2022-11-05T11:01:24.629Z,2.60
2022-11-05T11:02:24.442Z,2.20
2022-11-05T11:03:24.344Z,2.40
2022-11-05T11:04:24.407Z,2.20
2022-11-05T11:05:24.226Z,2.30
2022-11-05T11:06:24.158Z,2.30
2022-11-05T11:07:24.056Z,2.30
2022-11-05T11:08:24.021Z,2.30
2022-11-05T11:09:24.005Z,1.90
2022-11-05T11:10:23.885Z,2.40
2022-11-05T11:11:23.852Z,2.50
2022-11-05T11:12:23.986Z,3.00
2022-11-05T11:13:23.688Z,2.40
2022-11-05T11:14:23.648Z,2.30
2022-11-05T11:15:23.583Z,2.60
2022-11-05T11:16:23.525Z,2.70
2022-11-05T11:17:23.454Z,2.10
2022-11-05T11:18:23.366Z,2.80
2022-11-05T11:19:23.323Z,2.70
2022-11-05T11:20:23.263Z,3.00
2022-11-05T11:21:23.218Z,2.80
2022-11-05T11:22:23.368Z,2.40
2022-11-05T11:23:23.058Z,2.20
2022-11-05T11:24:23.012Z,2.40
2022-11-05T11:25:22.945Z,2.40
2022-11-05T11:26:22.866Z,2.60
2022-11-05T11:27:22.806Z,2.80
2022-11-05T11:28:22.987Z,2.90
2022-11-05T11:29:22.683Z,1.90
2022-11-05T11:30:22.621Z,2.40
2022-11-05T11:31:22.601Z,2.30
2022-11-05T11:32:22.467Z,2.40
2022-11-05T11:33:22.424Z,2.20
2022-11-05T11:34:22.383Z,2.30
2022-11-05T11:35:22.313Z,2.30
2022-11-05T11:36:22.225Z,2.40
2022-11-05T11:37:22.203Z,2.60
2022-11-05T11:38:22.127Z,2.50
2022-11-05T11:39:22.057Z,2.50
2022-11-05T11:40:22.015Z,2.50
2022-11-05T11:41:21.928Z,2.50
2022-11-05T11:42:21.880Z,2.40
2022-11-05T11:43:22.472Z,2.30
2022-11-05T11:44:21.751Z,2.30
2022-11-05T11:45:42.655Z,2.30
2022-11-05T11:46:21.622Z,2.90
2022-11-05T11:47:21.551Z,3.10
2022-11-05T11:48:21.462Z,2.60
2022-11-05T11:49:21.430Z,2.70
2022-11-05T11:50:21.357Z,2.60
2022-11-05T11:51:21.651Z,2.20
2022-11-05T11:52:21.232Z,2.30
2022-11-05T11:53:21.158Z,2.10
2022-11-05T11:54:21.075Z,2.50
2022-11-05T11:55:21.030Z,2.60
2022-11-05T11:56:20.987Z,2.50
2022-11-05T11:57:21.054Z,3.00
2022-11-05T11:58:20.862Z,2.70
2022-11-05T11:59:21.389Z,2.70
2022-11-05T12:00:20.738Z,2.70
2022-11-05T12:01:20.689Z,2.80
2022-11-05T12:02:20.732Z,2.80
2022-11-05T12:04:59.535Z,3.00
2022-11-05T12:06:00.328Z,2.90
2022-11-05T12:07:00.251Z,2.60
2022-11-05T12:08:00.183Z,3.00
2022-11-05T12:09:06.567Z,2.70
2022-11-05T12:10:00.067Z,3.40
2022-11-05T12:11:00.876Z,2.70
2022-11-05T12:12:00.955Z,3.10
2022-11-05T12:12:59.861Z,3.70
2022-11-05T12:13:59.812Z,2.90
2022-11-05T12:14:59.831Z,3.40
2022-11-05T12:15:59.687Z,2.80
2022-11-05T12:16:59.626Z,3.10
2022-11-05T12:17:59.556Z,3.00
2022-11-05T12:19:00.397Z,3.30
2022-11-05T12:19:59.428Z,3.70
2022-11-05T12:20:59.968Z,2.80
2022-11-05T12:21:59.308Z,3.30
2022-11-05T12:22:59.887Z,3.10
2022-11-05T12:24:00.123Z,2.70
2022-11-05T12:24:59.179Z,2.80
2022-11-05T12:25:59.063Z,2.40
2022-11-05T12:26:59.020Z,2.80
2022-11-05T12:27:59.825Z,3.10
2022-11-05T12:29:18.013Z,2.60
2022-11-05T12:29:58.790Z,3.20
2022-11-05T12:30:59.386Z,2.30
2022-11-05T12:31:58.640Z,2.60
2022-11-05T12:32:59.390Z,2.60
2022-11-05T12:33:58.545Z,2.90
2022-11-05T12:34:58.493Z,2.80
2022-11-05T12:35:58.563Z,3.30
2022-11-05T12:36:58.353Z,3.10
2022-11-05T12:37:58.294Z,3.30
2022-11-05T12:38:58.237Z,3.20
2022-11-05T12:39:58.186Z,3.80
2022-11-05T12:40:58.072Z,3.30
2022-11-05T12:41:58.045Z,3.20
2022-11-05T12:42:57.967Z,3.00
2022-11-05T12:43:58.109Z,3.10
2022-11-05T12:44:57.879Z,3.60
2022-11-05T12:45:57.797Z,3.60
2022-11-05T12:46:57.716Z,3.50
2022-11-05T12:47:57.667Z,3.20
2022-11-05T12:48:57.709Z,3.60
2022-11-05T12:49:57.548Z,3.60
2022-11-05T12:50:57.494Z,3.60
2022-11-05T12:51:57.414Z,4.30
2022-11-05T12:52:57.351Z,4.40
2022-11-05T12:53:57.285Z,4.40
2022-11-05T12:54:57.233Z,4.00
2022-11-05T12:55:57.869Z,4.20
2022-11-05T12:56:57.135Z,4.60
2022-11-05T12:57:57.033Z,4.10
2022-11-05T12:58:57.639Z,4.10
2022-11-05T12:59:56.903Z,4.50
2022-11-05T13:00:56.897Z,5.50
2022-11-05T13:01:56.857Z,5.20
2022-11-05T13:02:56.723Z,4.20
2022-11-05T13:03:56.860Z,4.60
2022-11-05T13:04:56.593Z,4.70
2022-11-05T13:06:02.942Z,3.90
2022-11-05T13:06:56.460Z,4.10
2022-11-05T13:07:56.373Z,4.00
2022-11-05T13:09:17.293Z,5.00
2022-11-05T13:09:56.273Z,4.40
2022-11-05T13:10:56.876Z,4.10
2022-11-05T13:11:56.141Z,4.20
2022-11-05T13:12:56.183Z,4.10
2022-11-05T13:13:56.010Z,4.60